Time;durP1;ratioP1;P1;durP2;ratioP2;P2;SDS_P1;SDS_P2;PMS_P1;PMS_P2;Temp;Humidity;BMP_temperature;BMP_pressure;BME280_temperature;BME280_humidity;BME280_pressure;Samples;Min_cycle;Max_cycle;Signal;HPM_P1;HPM_P2
2020/12/03 19:45:59;;;;;;;33.65;31.90;;;5.40;99.90;;;;;;5090721;27;20543;-59
2020/12/03 19:48:26;;;;;;;33.85;32.17;;;5.40;99.90;;;;;;5057213;28;20546;-60
2020/12/03 19:50:52;;;;;;;35.05;33.25;;;5.60;99.90;;;;;;5054382;28;20219;-60
2020/12/03 19:53:19;;;;;;;34.97;33.17;;;5.80;99.90;;;;;;5060463;28;20208;-58
2020/12/03 19:55:45;;;;;;;35.55;33.70;;;6.00;99.90;;;;;;5058670;28;20221;-59
2020/12/03 19:58:11;;;;;;;38.83;36.67;;;6.10;99.90;;;;;;5057154;28;20767;-60
2020/12/03 20:00:37;;;;;;;40.08;38.08;;;6.30;99.90;;;;;;5060091;28;20547;-60
2020/12/03 20:03:04;;;;;;;42.45;40.25;;;6.40;99.90;;;;;;5063476;28;20208;-60
2020/12/03 20:05:31;;;;;;;38.15;36.30;;;6.50;99.90;;;;;;5055624;28;20197;-59
2020/12/03 20:07:57;;;;;;;33.88;32.08;;;6.60;99.90;;;;;;5052137;28;20205;-59
2020/12/03 20:10:23;;;;;;;33.03;31.52;;;6.60;99.90;;;;;;5054703;28;20200;-60
2020/12/03 20:12:49;;;;;;;36.03;34.33;;;6.70;99.90;;;;;;5050446;28;20252;-60
2020/12/03 20:15:16;;;;;;;38.45;36.55;;;6.70;99.90;;;;;;5056093;28;20260;-60
2020/12/03 20:17:43;;;;;;;28.08;26.38;;;6.80;99.90;;;;;;5051335;28;20197;-60
2020/12/03 20:20:10;;;;;;;29.38;27.90;;;6.80;99.90;;;;;;5053253;28;20472;-59
2020/12/03 20:22:37;;;;;;;29.50;27.92;;;6.80;99.90;;;;;;5053029;28;20211;-59
2020/12/03 20:25:04;;;;;;;28.52;27.08;;;6.90;99.90;;;;;;5051065;28;20204;-61
2020/12/03 20:27:30;;;;;;;31.40;30.00;;;6.90;99.90;;;;;;5052430;28;20204;-60
2020/12/03 20:29:56;;;;;;;30.67;29.17;;;7.00;99.90;;;;;;5053921;28;20215;-59
2020/12/03 20:32:22;;;;;;;31.25;29.65;;;7.00;99.90;;;;;;5054495;28;20741;-60
2020/12/03 20:34:49;;;;;;;30.75;28.48;;;7.00;99.90;;;;;;5061645;28;20616;-60
2020/12/03 20:37:16;;;;;;;35.90;33.88;;;7.00;99.90;;;;;;5055410;28;20213;-59
2020/12/03 20:39:43;;;;;;;35.35;33.45;;;7.00;99.90;;;;;;5049360;28;20211;-60
2020/12/03 20:42:09;;;;;;;36.60;34.55;;;7.10;99.90;;;;;;5050299;28;20295;-59
2020/12/03 20:44:36;;;;;;;45.20;42.35;;;7.00;99.90;;;;;;5056291;28;20239;-59
2020/12/03 20:47:02;;;;;;;44.75;42.25;;;7.10;99.90;;;;;;5060523;28;20214;-61
2020/12/03 20:49:29;;;;;;;45.47;42.45;;;7.10;99.90;;;;;;5051510;28;20653;-58
2020/12/03 20:51:55;;;;;;;45.10;42.58;;;7.10;99.90;;;;;;5045810;28;20220;-60
2020/12/03 20:54:22;;;;;;;42.67;40.17;;;7.10;99.90;;;;;;5053519;28;20445;-60
2020/12/03 20:56:48;;;;;;;42.28;39.67;;;7.10;99.90;;;;;;5040691;28;20205;-58
2020/12/03 20:59:15;;;;;;;41.53;39.20;;;7.10;99.90;;;;;;5040901;28;20213;-57
2020/12/03 21:01:43;;;;;;;41.42;39.03;;;7.10;99.90;;;;;;5051531;28;20201;-60
2020/12/03 21:04:09;;;;;;;40.33;38.30;;;7.10;99.90;;;;;;5041836;28;20201;-60
2020/12/03 21:06:35;;;;;;;40.72;38.63;;;7.10;99.90;;;;;;5040262;28;20206;-60
2020/12/03 21:09:02;;;;;;;39.17;36.97;;;7.10;99.90;;;;;;5037772;28;20212;-57
2020/12/03 21:11:29;;;;;;;33.63;31.92;;;7.20;99.90;;;;;;5040851;28;20214;-56
2020/12/03 21:13:55;;;;;;;32.40;30.80;;;7.10;99.90;;;;;;5040758;28;20216;-59
2020/12/03 21:16:22;;;;;;;34.83;33.13;;;7.20;99.90;;;;;;5042878;28;20222;-58
2020/12/03 21:18:48;;;;;;;35.72;33.88;;;7.20;99.90;;;;;;5043477;28;20197;-60
2020/12/03 21:21:14;;;;;;;36.72;34.55;;;7.20;99.90;;;;;;5034840;28;20228;-56
2020/12/03 21:23:40;;;;;;;34.95;33.25;;;7.20;99.90;;;;;;5040574;28;20213;-57
2020/12/03 21:26:07;;;;;;;36.05;34.25;;;7.20;99.90;;;;;;5035678;28;20206;-59
2020/12/03 21:28:34;;;;;;;35.80;34.10;;;7.20;99.90;;;;;;5041249;28;20205;-58
2020/12/03 21:31:00;;;;;;;36.88;35.08;;;7.20;99.90;;;;;;5037594;28;20209;-57
2020/12/03 21:33:27;;;;;;;47.50;45.00;;;7.20;99.90;;;;;;5036464;28;20240;-58
2020/12/03 21:35:53;;;;;;;47.92;45.42;;;7.20;99.90;;;;;;5040016;28;20233;-59
2020/12/03 21:38:19;;;;;;;50.20;47.40;;;7.20;99.90;;;;;;5040094;28;20213;-58
2020/12/03 21:40:45;;;;;;;51.20;48.30;;;7.20;99.90;;;;;;5031042;28;20229;-57
2020/12/03 21:43:12;;;;;;;53.88;50.72;;;7.20;99.90;;;;;;5040030;28;20215;-55
2020/12/03 21:45:39;;;;;;;48.83;46.13;;;7.20;99.90;;;;;;5044054;28;20235;-57
2020/12/03 21:48:05;;;;;;;39.13;37.00;;;7.20;99.90;;;;;;5033918;28;20202;-57
2020/12/03 21:50:31;;;;;;;37.70;35.58;;;7.20;99.90;;;;;;5040027;28;20611;-59
2020/12/03 21:52:58;;;;;;;34.40;32.70;;;7.20;99.90;;;;;;5041386;28;20209;-58
2020/12/03 21:55:24;;;;;;;33.70;32.08;;;7.20;99.90;;;;;;5038029;28;20224;-59
2020/12/03 21:57:50;;;;;;;31.13;29.33;;;7.20;99.90;;;;;;5038325;28;20658;-58
2020/12/03 22:00:17;;;;;;;28.67;27.23;;;7.20;99.90;;;;;;5035013;28;20588;-58
2020/12/03 22:02:44;;;;;;;36.78;34.92;;;7.20;99.90;;;;;;5039936;28;20202;-58
2020/12/03 22:05:10;;;;;;;50.45;47.85;;;7.20;99.90;;;;;;5040037;28;20245;-59
2020/12/03 22:07:36;;;;;;;51.35;48.28;;;7.20;99.90;;;;;;5033659;28;20229;-57
2020/12/03 22:10:03;;;;;;;50.13;47.53;;;7.20;99.90;;;;;;5037883;28;20675;-60
2020/12/03 22:12:29;;;;;;;47.58;45.17;;;7.20;99.90;;;;;;5044049;28;20680;-58
2020/12/03 22:14:56;;;;;;;57.17;53.67;;;7.20;99.90;;;;;;5043408;28;20591;-60
2020/12/03 22:17:22;;;;;;;57.58;54.08;;;7.20;99.90;;;;;;5042036;28;20220;-58
2020/12/03 22:19:49;;;;;;;56.35;53.20;;;7.20;99.90;;;;;;5039996;28;20216;-59
2020/12/03 22:22:15;;;;;;;56.17;52.92;;;7.20;99.90;;;;;;5037019;28;20202;-59
2020/12/03 22:24:42;;;;;;;41.92;39.33;;;7.20;99.90;;;;;;5040232;28;20204;-59
2020/12/03 22:27:08;;;;;;;37.38;35.38;;;7.20;99.90;;;;;;5041079;28;20212;-59
2020/12/03 22:29:34;;;;;;;34.75;32.85;;;7.20;99.90;;;;;;5037342;28;20662;-58
2020/12/03 22:32:01;;;;;;;41.35;39.08;;;7.20;99.90;;;;;;5038217;28;20662;-58
2020/12/03 22:34:27;;;;;;;48.72;45.70;;;7.20;99.90;;;;;;5039643;28;20221;-59
2020/12/03 22:36:54;;;;;;;43.28;40.88;;;7.20;99.90;;;;;;5033497;28;20214;-60
2020/12/03 22:39:21;;;;;;;44.78;42.13;;;7.30;99.90;;;;;;5035008;28;20209;-60
2020/12/03 22:41:50;;;;;;;42.30;39.80;;;7.30;99.90;;;;;;5036606;28;20630;-59
2020/12/03 22:44:17;;;;;;;41.45;39.25;;;7.30;99.90;;;;;;5030607;28;20228;-60
2020/12/03 22:46:43;;;;;;;41.95;39.58;;;7.20;99.90;;;;;;5038755;28;20605;-58
2020/12/03 22:49:09;;;;;;;42.80;39.97;;;7.20;99.90;;;;;;5038690;28;20216;-59
2020/12/03 22:51:35;;;;;;;40.78;38.33;;;7.20;99.90;;;;;;5034126;28;20548;-59
2020/12/03 22:54:02;;;;;;;40.10;37.90;;;7.20;99.90;;;;;;5037815;28;20729;-60
2020/12/03 22:56:29;;;;;;;40.60;37.70;;;7.20;99.90;;;;;;5038780;28;20213;-58
2020/12/03 22:58:55;;;;;;;40.83;38.35;;;7.20;99.90;;;;;;5039549;28;20699;-58
2020/12/03 23:01:21;;;;;;;39.85;37.70;;;7.20;99.90;;;;;;5100239;22;20236;-76
2020/12/03 23:03:47;;;;;;;41.08;38.90;;;7.20;99.90;;;;;;5071951;28;20229;-77
2020/12/03 23:06:18;;;;;;;42.30;39.75;;;7.20;99.90;;;;;;5075649;28;20284;-76
2020/12/03 23:08:46;;;;;;;42.00;39.08;;;7.20;99.90;;;;;;5079573;28;20198;-77
2020/12/03 23:11:13;;;;;;;64.25;59.72;;;7.20;99.90;;;;;;5076710;28;20243;-75
2020/12/03 23:13:40;;;;;;;62.05;58.35;;;7.20;99.90;;;;;;5074059;28;21172;-76
2020/12/03 23:16:06;;;;;;;62.55;58.85;;;7.20;99.90;;;;;;5075102;28;20225;-77
2020/12/03 23:18:33;;;;;;;61.03;57.42;;;7.20;99.90;;;;;;5072893;28;20198;-76
2020/12/03 23:20:59;;;;;;;59.25;55.95;;;7.20;99.90;;;;;;5073357;28;20205;-76
2020/12/03 23:23:25;;;;;;;57.58;54.20;;;7.20;99.90;;;;;;5072577;28;20198;-76
2020/12/03 23:25:52;;;;;;;56.38;53.15;;;7.30;99.90;;;;;;5072407;28;20216;-75
2020/12/03 23:28:19;;;;;;;62.40;58.80;;;7.30;99.90;;;;;;5079844;28;20199;-76
2020/12/03 23:30:45;;;;;;;59.63;56.22;;;7.30;99.90;;;;;;5073029;28;20220;-76
2020/12/03 23:33:11;;;;;;;59.80;56.40;;;7.30;99.90;;;;;;5071829;28;20200;-76
2020/12/03 23:35:38;;;;;;;60.65;56.90;;;7.30;99.90;;;;;;5076527;28;20224;-75
2020/12/03 23:38:04;;;;;;;60.17;56.65;;;7.30;99.90;;;;;;5071996;28;20196;-74
2020/12/03 23:40:30;;;;;;;62.60;59.20;;;7.40;99.90;;;;;;5077540;28;20205;-74
2020/12/03 23:42:56;;;;;;;62.58;59.03;;;7.40;99.90;;;;;;5073321;28;20196;-75
2020/12/03 23:45:24;;;;;;;60.42;56.92;;;7.40;99.90;;;;;;5074891;28;20805;-75
2020/12/03 23:47:50;;;;;;;63.05;59.53;;;7.40;99.90;;;;;;5069532;28;20199;-75
2020/12/03 23:50:16;;;;;;;63.00;58.90;;;7.40;99.90;;;;;;5078781;28;20927;-77
2020/12/03 23:52:43;;;;;;;63.42;59.75;;;7.40;99.90;;;;;;5069460;28;20192;-74
2020/12/03 23:55:14;;;;;;;65.25;61.15;;;7.40;99.90;;;;;;5077641;28;20229;-75
2020/12/03 23:57:41;;;;;;;48.95;46.67;;;7.40;99.90;;;;;;5079097;28;20200;-77
